createdAt,value
2022-07-28T00:00:37.143Z,21.40
2022-07-28T00:03:06.120Z,21.40
2022-07-28T00:05:34.922Z,21.40
2022-07-28T00:08:03.792Z,21.40
2022-07-28T00:10:32.798Z,21.50
2022-07-28T00:13:01.955Z,21.50
2022-07-28T00:15:34.028Z,21.40
2022-07-28T00:18:02.770Z,21.40
2022-07-28T00:20:31.874Z,21.40
2022-07-28T00:23:00.704Z,21.40
2022-07-28T00:25:29.505Z,21.30
2022-07-28T00:27:58.152Z,21.30
2022-07-28T00:30:26.842Z,21.20
2022-07-28T00:32:56.896Z,21.20
2022-07-28T00:35:31.057Z,21.20
2022-07-28T00:38:01.345Z,21.20
2022-07-28T00:40:44.421Z,21.10
2022-07-28T00:43:13.154Z,21.10
2022-07-28T00:45:41.841Z,21.00
2022-07-28T00:48:11.918Z,20.90
2022-07-28T00:50:41.833Z,20.90
2022-07-28T00:53:10.759Z,20.80
2022-07-28T00:56:03.061Z,20.80
2022-07-28T00:58:31.041Z,20.80
2022-07-28T01:00:59.954Z,20.80
2022-07-28T01:03:32.611Z,20.70
2022-07-28T01:06:12.218Z,20.70
2022-07-28T01:09:03.432Z,20.70
2022-07-28T01:11:42.896Z,20.60
2022-07-28T01:14:20.555Z,20.60
2022-07-28T01:16:58.015Z,20.60
2022-07-28T01:19:48.008Z,20.50
2022-07-28T01:22:23.888Z,20.40
2022-07-28T01:25:08.383Z,20.40
2022-07-28T01:27:54.396Z,20.40
2022-07-28T01:30:37.718Z,20.40
2022-07-28T01:33:16.994Z,20.40
2022-07-28T01:35:52.713Z,20.40
2022-07-28T01:38:24.536Z,20.40
2022-07-28T01:40:56.830Z,20.40
2022-07-28T01:43:27.864Z,20.50
2022-07-28T01:46:01.080Z,20.50
2022-07-28T01:48:32.598Z,20.60
2022-07-28T01:51:03.256Z,20.60
2022-07-28T01:53:37.797Z,20.60
2022-07-28T01:56:09.353Z,20.70
2022-07-28T01:58:41.061Z,20.70
2022-07-28T02:01:14.784Z,20.70
2022-07-28T02:03:47.063Z,20.70
2022-07-28T02:06:21.137Z,20.70
2022-07-28T02:08:51.972Z,20.60
2022-07-28T02:11:38.338Z,20.60
2022-07-28T02:14:09.349Z,20.60
2022-07-28T02:16:44.265Z,20.50
2022-07-28T02:19:15.093Z,20.50
2022-07-28T02:21:47.791Z,20.50
2022-07-28T02:24:20.289Z,20.50
2022-07-28T02:26:57.062Z,20.50
2022-07-28T02:29:49.787Z,20.50
2022-07-28T02:32:28.124Z,20.50
2022-07-28T02:35:04.831Z,20.50
2022-07-28T02:37:40.011Z,20.50
2022-07-28T02:40:17.544Z,20.50
2022-07-28T02:42:50.167Z,20.50
2022-07-28T02:45:23.315Z,20.40
2022-07-28T02:50:47.756Z,20.40
2022-07-28T02:53:18.522Z,20.40
2022-07-28T02:55:50.241Z,20.40
2022-07-28T02:58:24.075Z,20.40
2022-07-28T03:00:56.545Z,20.40
2022-07-28T03:03:27.128Z,20.40
2022-07-28T03:05:56.257Z,20.40
2022-07-28T03:08:25.116Z,20.40
2022-07-28T03:11:09.632Z,20.40
2022-07-28T03:13:40.413Z,20.50
2022-07-28T03:16:09.853Z,20.40
2022-07-28T03:18:39.981Z,20.30
2022-07-28T03:21:08.844Z,20.30
2022-07-28T03:23:43.392Z,20.30
2022-07-28T03:26:20.895Z,20.20
2022-07-28T03:28:52.807Z,20.30
2022-07-28T03:31:23.400Z,20.20
2022-07-28T03:33:53.861Z,20.20
2022-07-28T03:36:32.273Z,20.10
2022-07-28T03:39:05.654Z,20.10
2022-07-28T03:41:36.802Z,20.10
2022-07-28T03:44:06.884Z,20.20
2022-07-28T03:46:36.085Z,20.20
2022-07-28T03:49:09.728Z,20.30
2022-07-28T03:51:39.341Z,20.40
2022-07-28T03:54:08.315Z,20.50
2022-07-28T03:56:37.087Z,20.60
2022-07-28T03:59:05.851Z,20.70
2022-07-28T04:01:34.566Z,20.80
2022-07-28T04:04:03.303Z,20.80
2022-07-28T04:06:33.583Z,20.90
2022-07-28T04:09:02.503Z,21.00
2022-07-28T04:11:31.173Z,21.00
2022-07-28T04:13:59.802Z,21.10
2022-07-28T04:16:28.534Z,21.20
2022-07-28T04:18:57.285Z,21.40
2022-07-28T04:21:26.221Z,21.50
2022-07-28T04:24:01.403Z,21.60
2022-07-28T04:26:31.126Z,21.80
2022-07-28T04:28:59.800Z,21.80
2022-07-28T04:31:32.564Z,22.00
2022-07-28T04:34:01.277Z,22.00
2022-07-28T04:36:30.432Z,22.20
2022-07-28T04:39:00.756Z,22.30
2022-07-28T04:41:29.476Z,22.30
2022-07-28T04:43:59.498Z,22.20
2022-07-28T04:46:28.522Z,22.10
2022-07-28T04:48:57.696Z,22.10
2022-07-28T04:51:26.551Z,22.10
2022-07-28T04:53:55.269Z,22.20
2022-07-28T04:56:25.639Z,22.40
2022-07-28T04:58:54.428Z,22.70
2022-07-28T05:01:24.043Z,22.90
2022-07-28T05:03:53.599Z,23.00
2022-07-28T05:06:22.275Z,22.90
2022-07-28T05:08:51.066Z,23.20
2022-07-28T05:11:20.113Z,23.70
2022-07-28T05:13:50.271Z,24.00
2022-07-28T05:16:19.222Z,24.00
2022-07-28T05:18:48.164Z,24.10
2022-07-28T05:21:16.968Z,24.70
2022-07-28T05:23:51.804Z,25.30
2022-07-28T05:26:20.966Z,25.80
2022-07-28T05:28:51.062Z,26.50
2022-07-28T05:31:19.978Z,27.10
2022-07-28T05:33:48.712Z,27.80
2022-07-28T05:36:17.691Z,28.20
2022-07-28T05:38:46.535Z,28.30
2022-07-28T05:41:15.298Z,28.30
2022-07-28T05:43:43.974Z,28.40
2022-07-28T05:46:14.158Z,28.50
2022-07-28T05:48:42.971Z,28.80
2022-07-28T05:51:11.770Z,29.10
2022-07-28T05:53:40.532Z,29.30
2022-07-28T05:56:09.249Z,29.50
2022-07-28T05:58:38.250Z,29.60
2022-07-28T06:01:07.143Z,29.20
2022-07-28T06:03:42.148Z,28.60
2022-07-28T06:06:16.143Z,28.00
2022-07-28T06:08:47.773Z,27.50
2022-07-28T06:11:22.608Z,27.20
2022-07-28T06:13:53.193Z,26.80
2022-07-28T06:16:23.668Z,26.40
2022-07-28T06:18:54.103Z,26.20
2022-07-28T06:21:25.178Z,26.00
2022-07-28T06:23:53.984Z,26.00
2022-07-28T06:26:23.806Z,26.70
2022-07-28T06:28:53.318Z,27.50
2022-07-28T06:31:22.190Z,28.30
2022-07-28T06:33:51.134Z,28.70
2022-07-28T06:36:21.140Z,28.80
2022-07-28T06:38:50.087Z,29.00
2022-07-28T06:41:18.866Z,29.50
2022-07-28T06:43:47.889Z,29.90
2022-07-28T06:46:19.679Z,29.80
2022-07-28T06:48:48.729Z,29.80
2022-07-28T06:51:20.049Z,29.80
2022-07-28T06:53:50.508Z,29.90
2022-07-28T06:56:21.435Z,29.90
2022-07-28T06:58:50.561Z,29.90
2022-07-28T07:01:19.797Z,29.80
2022-07-28T07:03:48.642Z,29.90
2022-07-28T07:06:17.557Z,29.70
2022-07-28T07:08:47.365Z,29.20
2022-07-28T07:11:17.740Z,28.70
2022-07-28T07:13:46.554Z,28.50
2022-07-28T07:16:15.384Z,28.20
2022-07-28T07:18:44.079Z,27.90
2022-07-28T07:21:13.109Z,28.10
2022-07-28T07:23:41.931Z,28.60
2022-07-28T07:26:10.736Z,29.30
2022-07-28T07:28:41.943Z,30.10
2022-07-28T07:31:10.929Z,30.90
2022-07-28T07:33:39.873Z,31.70
2022-07-28T07:36:08.734Z,32.20
2022-07-28T07:38:37.749Z,32.70
2022-07-28T07:41:06.595Z,33.20
2022-07-28T07:43:35.627Z,33.60
2022-07-28T07:46:07.609Z,33.50
2022-07-28T07:48:36.387Z,33.80
2022-07-28T07:51:06.034Z,34.30
2022-07-28T07:53:34.774Z,35.20
2022-07-28T07:56:03.598Z,35.90
2022-07-28T07:58:32.530Z,36.30
2022-07-28T08:01:01.444Z,36.60
2022-07-28T08:03:31.525Z,36.10
2022-07-28T08:06:01.548Z,35.70
2022-07-28T08:08:30.197Z,35.20
2022-07-28T08:10:58.889Z,34.80
2022-07-28T08:13:27.610Z,34.60
2022-07-28T08:15:56.385Z,34.40
2022-07-28T08:18:26.161Z,34.40
2022-07-28T08:20:56.309Z,34.40
2022-07-28T08:23:26.410Z,34.50
2022-07-28T08:25:55.671Z,34.80
2022-07-28T08:28:24.449Z,35.20
2022-07-28T08:30:53.645Z,35.50
2022-07-28T08:33:22.392Z,35.60
2022-07-28T08:35:51.496Z,35.50
2022-07-28T08:38:21.571Z,35.10
2022-07-28T08:40:53.016Z,34.90
2022-07-28T08:43:33.757Z,35.20
2022-07-28T08:46:04.853Z,35.50
2022-07-28T08:48:36.837Z,35.60
2022-07-28T08:51:09.515Z,35.80
2022-07-28T08:53:42.063Z,36.00
2022-07-28T08:56:30.143Z,36.20
2022-07-28T08:59:00.074Z,36.40
2022-07-28T09:01:38.797Z,36.50
2022-07-28T09:04:09.561Z,36.50
2022-07-28T09:06:42.271Z,36.60
2022-07-28T09:09:12.548Z,36.80
2022-07-28T09:11:41.651Z,36.90
2022-07-28T09:14:10.488Z,37.10
2022-07-28T09:16:40.690Z,37.20
2022-07-28T09:19:09.378Z,37.20
2022-07-28T09:21:38.643Z,37.00
2022-07-28T09:24:08.565Z,36.80
2022-07-28T09:26:38.790Z,36.80
2022-07-28T09:29:08.645Z,36.80
2022-07-28T09:31:57.051Z,37.00
2022-07-28T09:34:26.656Z,37.00
2022-07-28T09:36:55.642Z,37.00
2022-07-28T09:39:34.525Z,37.10
2022-07-28T09:42:05.149Z,37.10
2022-07-28T09:44:33.847Z,37.20
2022-07-28T09:47:02.827Z,36.90
2022-07-28T09:49:44.959Z,36.60
2022-07-28T09:52:14.135Z,36.30
2022-07-28T09:55:02.181Z,35.80
2022-07-28T09:57:34.301Z,35.70
2022-07-28T10:00:10.050Z,35.30
2022-07-28T10:02:40.842Z,35.20
2022-07-28T10:05:10.638Z,35.40
2022-07-28T10:07:51.268Z,35.80
2022-07-28T10:10:23.012Z,35.30
2022-07-28T10:13:06.238Z,34.90
2022-07-28T10:15:52.476Z,34.70
2022-07-28T10:18:21.382Z,35.10
2022-07-28T10:20:51.368Z,35.50
2022-07-28T10:23:21.908Z,35.70
2022-07-28T10:25:53.268Z,35.80
2022-07-28T10:28:24.437Z,36.10
2022-07-28T10:30:58.850Z,36.30
2022-07-28T10:33:32.964Z,36.50
2022-07-28T10:36:03.647Z,36.40
2022-07-28T10:38:37.560Z,36.50
2022-07-28T10:41:10.070Z,36.70
2022-07-28T10:43:45.417Z,36.10
2022-07-28T10:46:16.886Z,35.90
2022-07-28T10:48:46.619Z,36.20
2022-07-28T10:51:16.395Z,36.40
2022-07-28T10:53:54.617Z,36.50
2022-07-28T10:56:39.985Z,36.30
2022-07-28T10:59:30.758Z,35.70
2022-07-28T11:01:59.771Z,35.80
2022-07-28T11:04:55.586Z,36.00
2022-07-28T11:07:24.475Z,36.20
2022-07-28T11:09:55.066Z,36.10
2022-07-28T11:12:49.545Z,36.00
2022-07-28T11:15:32.763Z,36.00
2022-07-28T11:18:08.736Z,35.80
2022-07-28T11:21:09.220Z,35.70
2022-07-28T11:23:55.143Z,35.60
2022-07-28T11:26:38.084Z,35.50
2022-07-28T11:29:23.355Z,35.00
2022-07-28T11:32:04.733Z,34.60
2022-07-28T11:35:19.684Z,34.40
2022-07-28T11:38:14.337Z,34.10
2022-07-28T11:40:45.322Z,34.00
2022-07-28T11:43:36.312Z,33.90
2022-07-28T11:46:38.404Z,33.80
2022-07-28T11:49:27.863Z,33.80
2022-07-28T11:52:21.553Z,34.00
2022-07-28T11:55:02.402Z,34.20
2022-07-28T11:57:39.953Z,34.00
2022-07-28T12:00:10.568Z,33.80
2022-07-28T12:02:42.189Z,33.80
2022-07-28T12:05:15.475Z,34.00
2022-07-28T12:07:49.550Z,34.20
2022-07-28T12:13:32.759Z,34.20
2022-07-28T12:16:01.518Z,34.30
2022-07-28T12:18:30.619Z,34.40
2022-07-28T12:21:05.121Z,34.50
2022-07-28T12:23:45.613Z,34.20
2022-07-28T12:26:40.641Z,34.20
2022-07-28T12:29:13.621Z,34.10
2022-07-28T12:31:55.782Z,34.20
2022-07-28T12:34:28.874Z,34.50
2022-07-28T12:37:03.148Z,34.50
2022-07-28T12:39:34.640Z,34.20
2022-07-28T12:42:05.883Z,34.00
2022-07-28T12:44:40.446Z,33.80
2022-07-28T12:47:12.288Z,33.60
2022-07-28T12:49:44.577Z,33.40
2022-07-28T12:52:21.410Z,33.30
2022-07-28T12:54:54.893Z,33.40
2022-07-28T12:57:47.951Z,33.70
2022-07-28T13:00:20.344Z,34.00
2022-07-28T13:02:50.674Z,34.20
2022-07-28T13:05:55.458Z,34.20
2022-07-28T13:08:29.441Z,34.20
2022-07-28T13:10:59.311Z,34.10
2022-07-28T13:13:29.212Z,33.90
2022-07-28T13:16:15.633Z,33.80
2022-07-28T13:18:46.559Z,33.80
2022-07-28T13:21:16.765Z,33.90
2022-07-28T13:23:46.871Z,33.60
2022-07-28T13:26:15.597Z,33.20
2022-07-28T13:28:44.271Z,33.00
2022-07-28T13:31:13.029Z,32.80
2022-07-28T13:33:42.118Z,32.80
2022-07-28T13:36:11.004Z,32.80
2022-07-28T13:38:39.692Z,32.80
2022-07-28T13:41:09.768Z,32.80
2022-07-28T13:43:38.802Z,32.60
2022-07-28T13:46:07.624Z,32.70
2022-07-28T13:48:57.402Z,32.70
2022-07-28T13:51:27.069Z,32.90
2022-07-28T13:53:56.513Z,33.20
2022-07-28T13:56:27.138Z,33.40
2022-07-28T13:58:55.807Z,33.50
2022-07-28T14:01:24.546Z,33.60
2022-07-28T14:03:58.371Z,33.70
2022-07-28T14:06:27.475Z,33.80
2022-07-28T14:08:57.133Z,33.80
2022-07-28T14:11:27.497Z,33.70
2022-07-28T14:13:56.228Z,33.70
2022-07-28T14:16:26.007Z,33.30
2022-07-28T14:18:54.773Z,32.90
2022-07-28T14:21:23.810Z,32.40
2022-07-28T14:23:53.002Z,32.10
2022-07-28T14:26:35.368Z,32.00
2022-07-28T14:29:11.214Z,31.90
2022-07-28T14:31:41.253Z,31.90
2022-07-28T14:34:10.309Z,31.70
2022-07-28T14:36:39.569Z,31.50
2022-07-28T14:39:12.401Z,31.50
2022-07-28T14:41:42.805Z,31.50
2022-07-28T14:44:20.574Z,31.50
2022-07-28T14:46:53.679Z,31.40
2022-07-28T14:49:22.651Z,31.40
2022-07-28T14:51:51.838Z,31.40
2022-07-28T14:54:20.824Z,31.30
2022-07-28T14:56:49.579Z,31.20
2022-07-28T14:59:19.848Z,31.20
2022-07-28T15:01:49.106Z,31.20
2022-07-28T15:04:18.573Z,31.30
2022-07-28T15:06:48.157Z,31.70
2022-07-28T15:09:16.952Z,32.00
2022-07-28T15:11:47.431Z,32.40
2022-07-28T15:14:17.036Z,32.60
2022-07-28T15:16:51.725Z,32.70
2022-07-28T15:19:20.873Z,32.80
2022-07-28T15:21:49.692Z,32.80
2022-07-28T15:24:19.502Z,32.60
2022-07-28T15:26:48.246Z,32.10
2022-07-28T15:29:16.998Z,31.80
2022-07-28T15:31:47.330Z,31.70
2022-07-28T15:34:18.747Z,31.50
2022-07-28T15:36:47.849Z,31.40
2022-07-28T15:39:16.629Z,31.20
2022-07-28T15:41:47.689Z,31.20
2022-07-28T15:44:17.490Z,31.20
2022-07-28T15:46:54.939Z,31.20
2022-07-28T15:49:27.440Z,31.20
2022-07-28T15:51:57.848Z,31.20
2022-07-28T15:54:26.704Z,31.10
2022-07-28T15:56:56.140Z,31.00
2022-07-28T15:59:25.555Z,31.00
2022-07-28T16:01:54.845Z,31.00
2022-07-28T16:04:25.124Z,31.00
2022-07-28T16:07:11.254Z,31.00
2022-07-28T16:09:46.622Z,31.00
2022-07-28T16:12:15.822Z,30.90
2022-07-28T16:14:44.554Z,30.90
2022-07-28T16:17:13.297Z,30.90
2022-07-28T16:19:49.446Z,31.10
2022-07-28T16:22:19.966Z,31.20
2022-07-28T16:24:49.447Z,31.30
2022-07-28T16:27:18.337Z,31.30
2022-07-28T16:29:49.579Z,31.20
2022-07-28T16:32:18.487Z,31.10
2022-07-28T16:34:49.754Z,31.00
2022-07-28T16:37:19.711Z,30.90
2022-07-28T16:39:50.060Z,30.80
2022-07-28T16:42:18.879Z,30.70
2022-07-28T16:44:48.202Z,30.70
2022-07-28T16:47:17.437Z,30.70
2022-07-28T16:49:46.493Z,30.70
2022-07-28T16:52:17.378Z,30.70
2022-07-28T16:54:46.240Z,30.70
2022-07-28T16:57:16.550Z,30.60
2022-07-28T16:59:48.375Z,30.50
2022-07-28T17:02:19.394Z,30.40
2022-07-28T17:04:48.904Z,30.40
2022-07-28T17:07:19.693Z,30.40
2022-07-28T17:09:48.383Z,30.30
2022-07-28T17:12:17.224Z,30.30
2022-07-28T17:14:46.200Z,30.30
2022-07-28T17:17:15.036Z,30.20
2022-07-28T17:19:46.716Z,30.20
2022-07-28T17:22:16.219Z,30.20
2022-07-28T17:24:48.438Z,30.10
2022-07-28T17:27:37.745Z,30.10
2022-07-28T17:30:07.800Z,30.00
2022-07-28T17:32:36.546Z,29.90
2022-07-28T17:35:06.482Z,29.90
2022-07-28T17:37:35.416Z,29.80
2022-07-28T17:40:07.412Z,29.80
2022-07-28T17:42:36.303Z,29.70
2022-07-28T17:45:05.498Z,29.70
2022-07-28T17:47:36.039Z,29.70
2022-07-28T17:50:07.444Z,29.60
2022-07-28T17:52:36.511Z,29.60
2022-07-28T17:55:25.200Z,29.60
2022-07-28T17:57:56.678Z,29.40
2022-07-28T18:00:25.606Z,29.00
2022-07-28T18:02:54.293Z,28.70
2022-07-28T18:05:23.097Z,28.60
2022-07-28T18:07:54.796Z,28.70
2022-07-28T18:10:27.729Z,28.80
2022-07-28T18:12:56.396Z,28.90
2022-07-28T18:15:26.004Z,28.90
2022-07-28T18:17:56.109Z,28.90
2022-07-28T18:20:25.541Z,28.90
2022-07-28T18:22:54.237Z,28.90
2022-07-28T18:25:22.898Z,28.80
2022-07-28T18:27:53.887Z,28.80
2022-07-28T18:30:23.248Z,28.90
2022-07-28T18:32:52.434Z,28.90
2022-07-28T18:35:22.593Z,28.80
2022-07-28T18:37:52.024Z,28.80
2022-07-28T18:40:22.059Z,28.80
2022-07-28T18:42:53.041Z,28.70
2022-07-28T18:45:22.034Z,28.70
2022-07-28T18:47:50.833Z,28.80
2022-07-28T18:50:30.276Z,28.90
2022-07-28T18:53:01.091Z,29.10
2022-07-28T18:55:30.106Z,29.30
2022-07-28T18:58:00.161Z,29.40
2022-07-28T19:00:29.037Z,29.50
2022-07-28T19:02:57.808Z,29.50
2022-07-28T19:05:26.879Z,29.50
2022-07-28T19:08:05.796Z,29.30
2022-07-28T19:10:34.738Z,28.90
2022-07-28T19:13:05.658Z,28.70
2022-07-28T19:15:41.419Z,28.70
2022-07-28T19:18:12.080Z,28.60
2022-07-28T19:20:41.716Z,28.50
2022-07-28T19:23:10.401Z,28.40
2022-07-28T19:25:40.545Z,28.40
2022-07-28T19:28:11.811Z,28.50
2022-07-28T19:30:40.612Z,28.50
2022-07-28T19:33:09.812Z,28.60
2022-07-28T19:35:39.648Z,28.70
2022-07-28T19:38:08.443Z,28.60
2022-07-28T19:40:38.398Z,28.30
2022-07-28T19:43:07.527Z,28.10
2022-07-28T19:45:40.724Z,28.00
2022-07-28T19:48:10.097Z,27.90
2022-07-28T19:50:39.062Z,27.80
2022-07-28T19:53:13.187Z,27.60
2022-07-28T19:55:45.608Z,27.50
2022-07-28T19:58:19.935Z,27.40
2022-07-28T20:00:51.203Z,27.40
2022-07-28T20:03:59.983Z,27.30
2022-07-28T20:06:10.282Z,27.20
2022-07-28T20:08:39.444Z,27.20
2022-07-28T20:11:08.850Z,27.10
2022-07-28T20:13:38.400Z,27.00
2022-07-28T20:16:09.377Z,26.90
2022-07-28T20:18:38.281Z,26.70
2022-07-28T20:21:07.329Z,26.70
2022-07-28T20:23:38.636Z,26.70
2022-07-28T20:26:07.562Z,26.70
2022-07-28T20:28:36.519Z,26.70
2022-07-28T20:31:05.441Z,26.60
2022-07-28T20:33:35.584Z,26.60
2022-07-28T20:36:05.178Z,26.60
2022-07-28T20:38:33.913Z,26.50
2022-07-28T20:41:02.577Z,26.50
2022-07-28T20:43:36.353Z,26.50
2022-07-28T20:46:06.765Z,26.50
2022-07-28T20:48:37.284Z,26.40
2022-07-28T20:51:06.163Z,26.30
2022-07-28T20:53:35.147Z,26.30
2022-07-28T20:56:03.889Z,26.20
2022-07-28T20:58:32.678Z,26.20
2022-07-28T21:01:03.566Z,26.20
2022-07-28T21:03:32.451Z,26.10
2022-07-28T21:06:02.644Z,26.10
2022-07-28T21:08:31.712Z,26.00
2022-07-28T21:11:00.778Z,26.00
2022-07-28T21:13:32.012Z,25.90
2022-07-28T21:16:01.179Z,25.90
2022-07-28T21:18:30.621Z,26.00
2022-07-28T21:21:01.426Z,26.00
2022-07-28T21:23:30.308Z,25.90
2022-07-28T21:25:59.082Z,25.90
2022-07-28T21:28:45.687Z,25.70
2022-07-28T21:31:14.659Z,25.30
2022-07-28T21:33:43.551Z,24.80
2022-07-28T21:36:14.164Z,24.80
2022-07-28T21:38:43.040Z,24.90
2022-07-28T21:41:11.900Z,25.00
2022-07-28T21:43:40.980Z,25.10
2022-07-28T21:46:09.769Z,25.20
2022-07-28T21:48:38.948Z,25.20
2022-07-28T21:51:18.204Z,25.20
2022-07-28T21:53:52.185Z,25.20
2022-07-28T21:56:21.627Z,25.20
2022-07-28T21:58:51.164Z,25.30
2022-07-28T22:01:20.207Z,25.30
2022-07-28T22:03:49.341Z,25.20
2022-07-28T22:06:18.583Z,25.20
2022-07-28T22:08:50.215Z,25.20
2022-07-28T22:11:20.708Z,25.20
2022-07-28T22:13:49.396Z,25.10
2022-07-28T22:16:19.008Z,25.10
2022-07-28T22:18:47.751Z,25.10
2022-07-28T22:21:16.735Z,25.10
2022-07-28T22:23:46.294Z,25.10
2022-07-28T22:26:15.239Z,25.10
2022-07-28T22:28:45.675Z,25.00
2022-07-28T22:31:15.173Z,25.10
2022-07-28T22:33:43.947Z,25.10
2022-07-28T22:36:12.819Z,25.10
2022-07-28T22:38:41.577Z,25.00
2022-07-28T22:41:10.795Z,25.00
2022-07-28T22:43:39.469Z,25.00
2022-07-28T22:46:11.480Z,25.00
2022-07-28T22:48:40.622Z,25.00
2022-07-28T22:51:12.332Z,25.00
2022-07-28T22:53:42.371Z,25.00
2022-07-28T22:58:58.455Z,24.80
2022-07-28T23:01:28.766Z,24.80
2022-07-28T23:03:57.968Z,24.60
2022-07-28T23:06:27.175Z,24.60
2022-07-28T23:08:55.995Z,24.60
2022-07-28T23:11:24.710Z,24.60
2022-07-28T23:13:53.513Z,24.50
2022-07-28T23:16:22.306Z,24.50
2022-07-28T23:18:52.505Z,24.50
2022-07-28T23:21:21.849Z,24.40
2022-07-28T23:23:50.664Z,24.40
2022-07-28T23:26:19.587Z,24.30
2022-07-28T23:28:48.329Z,24.30
2022-07-28T23:31:17.232Z,24.30
2022-07-28T23:33:55.773Z,24.20
2022-07-28T23:36:28.113Z,24.20
2022-07-28T23:38:58.737Z,24.20
2022-07-28T23:41:28.401Z,24.20
2022-07-28T23:43:57.182Z,24.20
2022-07-28T23:46:26.288Z,24.20
2022-07-28T23:48:55.123Z,24.20
2022-07-28T23:51:39.241Z,24.30
2022-07-28T23:54:14.265Z,24.20
2022-07-28T23:56:44.276Z,24.10
2022-07-28T23:59:14.388Z,24.10
